Time;durP1;ratioP1;P1;durP2;ratioP2;P2;SDS_P1;SDS_P2;PMS_P1;PMS_P2;Temp;Humidity;BMP_temperature;BMP_pressure;BME280_temperature;BME280_humidity;BME280_pressure;Samples;Min_cycle;Max_cycle;Signal;HPM_P1;HPM_P2
2023/05/25 00:00:37;;;;;;;1.50;1.20;;;10.50;98.20;;;;;;5041398;28;20466;-77
2023/05/25 00:03:04;;;;;;;1.50;1.03;;;10.50;98.20;;;;;;5035667;28;20458;-77
2023/05/25 00:05:32;;;;;;;1.50;1.20;;;10.40;98.20;;;;;;5037328;28;20972;-76
2023/05/25 00:07:59;;;;;;;1.50;1.20;;;10.40;98.20;;;;;;5045674;28;20581;-77
2023/05/25 00:10:26;;;;;;;1.50;1.10;;;10.40;98.20;;;;;;5040498;28;20460;-76
2023/05/25 00:12:55;;;;;;;1.50;1.17;;;10.40;98.20;;;;;;5037918;28;20473;-76
2023/05/25 00:15:22;;;;;;;1.50;1.10;;;10.40;98.20;;;;;;5037508;28;20455;-77
2023/05/25 00:17:49;;;;;;;1.50;1.20;;;10.30;98.20;;;;;;5034486;28;20486;-76
2023/05/25 00:20:16;;;;;;;1.50;1.10;;;10.30;98.20;;;;;;5043404;28;20505;-77
2023/05/25 00:22:45;;;;;;;1.50;1.10;;;10.30;98.20;;;;;;5044336;28;20466;-77
2023/05/25 00:25:11;;;;;;;1.50;1.10;;;10.30;98.20;;;;;;5047428;28;20917;-80
2023/05/25 00:27:38;;;;;;;1.50;1.20;;;10.30;98.20;;;;;;5045349;28;20482;-77
2023/05/25 00:30:07;;;;;;;1.50;1.10;;;10.20;98.20;;;;;;5045642;28;20470;-77
2023/05/25 00:32:33;;;;;;;1.50;1.10;;;10.20;98.20;;;;;;5045617;28;20493;-76
2023/05/25 00:35:00;;;;;;;1.50;1.10;;;10.20;98.20;;;;;;5050210;28;20836;-77
2023/05/25 00:37:27;;;;;;;1.50;1.10;;;10.10;98.20;;;;;;5048443;28;20485;-76
2023/05/25 00:39:55;;;;;;;1.50;1.10;;;10.20;98.20;;;;;;5044426;28;20540;-77
2023/05/25 00:42:23;;;;;;;1.50;1.10;;;10.10;98.20;;;;;;5048619;28;20461;-76
2023/05/25 00:44:50;;;;;;;1.50;1.10;;;10.20;98.20;;;;;;5048758;28;20468;-77
2023/05/25 00:47:17;;;;;;;1.50;1.20;;;10.10;98.20;;;;;;5046990;28;20463;-77
2023/05/25 00:49:44;;;;;;;1.50;1.10;;;10.10;98.20;;;;;;5039944;28;20505;-77
2023/05/25 00:52:12;;;;;;;1.50;1.20;;;10.10;98.20;;;;;;5046456;28;20961;-77
2023/05/25 00:54:39;;;;;;;1.50;1.20;;;10.10;98.20;;;;;;5047545;28;20451;-76
2023/05/25 00:57:08;;;;;;;3.33;2.80;;;10.10;98.20;;;;;;5043472;28;20467;-77
2023/05/25 00:59:40;;;;;;;1.50;1.10;;;10.10;98.20;;;;;;5045611;28;20484;-77
2023/05/25 01:02:08;;;;;;;1.50;1.13;;;10.10;98.20;;;;;;5044012;28;21106;-77
2023/05/25 01:04:39;;;;;;;1.50;1.10;;;10.10;98.20;;;;;;5046332;28;20466;-77
2023/05/25 01:07:08;;;;;;;1.50;1.10;;;10.10;98.20;;;;;;5042920;28;20481;-77
2023/05/25 01:09:36;;;;;;;1.50;1.20;;;10.10;98.20;;;;;;5043071;28;20451;-76
2023/05/25 01:12:04;;;;;;;1.50;1.10;;;10.00;98.20;;;;;;5041957;28;20829;-77
2023/05/25 01:14:34;;;;;;;1.50;1.10;;;10.00;98.20;;;;;;5044283;28;20454;-77
2023/05/25 01:17:02;;;;;;;1.50;1.30;;;10.00;98.20;;;;;;5043245;28;20453;-77
2023/05/25 01:19:32;;;;;;;1.50;1.10;;;10.00;98.20;;;;;;5038371;28;21043;-76
2023/05/25 01:22:05;;;;;;;1.50;1.10;;;10.00;98.20;;;;;;5042759;28;20553;-77
2023/05/25 01:24:39;;;;;;;1.50;1.20;;;10.00;98.20;;;;;;5048228;28;20554;-76
2023/05/25 01:27:10;;;;;;;1.50;1.20;;;9.90;98.20;;;;;;5040735;28;20480;-78
2023/05/25 01:29:40;;;;;;;1.50;1.10;;;9.90;98.20;;;;;;5052964;28;20454;-76
2023/05/25 01:32:08;;;;;;;1.50;1.20;;;9.90;98.20;;;;;;5050686;28;20493;-78
2023/05/25 01:34:35;;;;;;;1.50;1.20;;;9.90;98.20;;;;;;5049013;28;20481;-76
2023/05/25 01:37:04;;;;;;;1.50;1.17;;;9.90;98.20;;;;;;5050926;28;20996;-76
2023/05/25 01:39:31;;;;;;;1.50;1.20;;;9.80;98.20;;;;;;5049613;28;20508;-76
2023/05/25 01:41:57;;;;;;;1.50;1.20;;;9.80;98.20;;;;;;5050331;28;20466;-77
2023/05/25 01:44:25;;;;;;;1.50;1.10;;;9.80;98.20;;;;;;5049188;28;20466;-77
2023/05/25 01:47:02;;;;;;;1.50;1.20;;;9.80;98.20;;;;;;5049923;28;20516;-79
2023/05/25 01:49:53;;;;;;;1.50;1.10;;;9.70;98.20;;;;;;5050673;28;20458;-76
2023/05/25 01:52:26;;;;;;;1.50;1.20;;;9.70;98.20;;;;;;5047577;28;20458;-77
2023/05/25 01:54:57;;;;;;;1.50;1.10;;;9.60;98.20;;;;;;5044132;28;20921;-76
2023/05/25 01:57:26;;;;;;;1.50;1.20;;;9.60;98.20;;;;;;5038717;28;20478;-77
2023/05/25 01:59:56;;;;;;;1.50;1.20;;;9.60;98.20;;;;;;5047563;28;20486;-77
2023/05/25 02:02:25;;;;;;;1.50;1.20;;;9.60;98.20;;;;;;5048869;28;20463;-76
2023/05/25 02:04:53;;;;;;;1.50;1.20;;;9.60;98.20;;;;;;5045820;28;20898;-77
2023/05/25 02:07:23;;;;;;;1.50;1.10;;;9.60;98.20;;;;;;5049958;28;20454;-76
2023/05/25 02:09:49;;;;;;;1.50;1.10;;;9.50;98.20;;;;;;5050450;28;20457;-78
2023/05/25 02:12:16;;;;;;;1.50;1.10;;;9.50;98.20;;;;;;5050023;28;20451;-77
2023/05/25 02:14:44;;;;;;;1.50;1.10;;;9.50;98.20;;;;;;5049822;28;20458;-79
2023/05/25 02:17:11;;;;;;;1.50;1.20;;;9.50;98.20;;;;;;5051369;28;20879;-77
2023/05/25 02:19:38;;;;;;;1.70;1.47;;;9.50;98.20;;;;;;5046187;28;20933;-77
2023/05/25 02:22:05;;;;;;;1.50;1.20;;;9.50;98.20;;;;;;5049586;28;20460;-77
2023/05/25 02:24:33;;;;;;;1.50;1.20;;;9.50;98.20;;;;;;5048781;28;20459;-79
2023/05/25 02:27:00;;;;;;;1.50;1.13;;;9.50;98.20;;;;;;5049163;28;20458;-75
2023/05/25 02:29:27;;;;;;;1.50;1.10;;;9.50;98.20;;;;;;5049733;28;20478;-77
2023/05/25 02:31:54;;;;;;;1.50;1.10;;;9.40;98.20;;;;;;5049855;28;20458;-76
2023/05/25 02:34:21;;;;;;;1.50;1.20;;;9.40;98.20;;;;;;5049067;28;20461;-76
2023/05/25 02:36:47;;;;;;;1.50;1.20;;;9.40;98.20;;;;;;5049540;28;20941;-76
2023/05/25 02:39:14;;;;;;;1.50;1.20;;;9.40;98.20;;;;;;5044529;28;20494;-76
2023/05/25 02:41:42;;;;;;;1.50;1.10;;;9.40;98.20;;;;;;5045205;28;20462;-76
2023/05/25 02:44:09;;;;;;;1.50;1.10;;;9.40;98.20;;;;;;5056107;28;20459;-77
2023/05/25 02:46:36;;;;;;;1.50;1.10;;;9.40;98.20;;;;;;5050893;28;20980;-77
2023/05/25 02:49:03;;;;;;;1.50;1.20;;;9.40;98.20;;;;;;5048657;28;20506;-77
2023/05/25 02:51:31;;;;;;;1.50;1.10;;;9.40;98.20;;;;;;5047125;28;20459;-76
2023/05/25 02:53:58;;;;;;;1.50;1.20;;;9.40;98.20;;;;;;5047720;28;20458;-77
2023/05/25 02:56:26;;;;;;;1.50;1.20;;;9.40;98.20;;;;;;5049374;28;20486;-77
2023/05/25 02:58:54;;;;;;;1.50;1.27;;;9.40;98.20;;;;;;5049799;28;20844;-77
2023/05/25 03:01:21;;;;;;;1.50;1.20;;;9.30;98.20;;;;;;5048913;28;21124;-77
2023/05/25 03:03:51;;;;;;;1.50;1.20;;;9.30;98.20;;;;;;5051234;28;20463;-79
2023/05/25 03:06:18;;;;;;;1.50;1.10;;;9.30;98.20;;;;;;5045864;28;20462;-75
2023/05/25 03:08:45;;;;;;;1.50;1.20;;;9.20;98.20;;;;;;5049689;28;20760;-75
2023/05/25 03:11:12;;;;;;;1.50;1.13;;;9.20;98.20;;;;;;5044639;28;20467;-75
2023/05/25 03:13:38;;;;;;;1.50;1.10;;;9.20;98.20;;;;;;5048138;28;20813;-75
2023/05/25 03:16:07;;;;;;;1.50;1.10;;;9.20;98.20;;;;;;5045866;28;20913;-76
2023/05/25 03:18:34;;;;;;;1.50;1.20;;;9.20;98.20;;;;;;5047186;28;20479;-75
2023/05/25 03:21:01;;;;;;;1.50;1.10;;;9.10;98.20;;;;;;5046240;28;20462;-75
2023/05/25 03:23:28;;;;;;;1.50;1.10;;;9.10;98.20;;;;;;5063371;23;20860;-86
2023/05/25 03:25:54;;;;;;;1.50;1.20;;;9.10;98.20;;;;;;5080255;28;20485;-89
2023/05/25 03:28:21;;;;;;;1.50;1.20;;;9.10;98.20;;;;;;5069198;28;20454;-88
2023/05/25 03:30:48;;;;;;;1.50;1.20;;;9.10;98.20;;;;;;5079393;28;20544;-89
2023/05/25 03:33:16;;;;;;;1.50;1.20;;;9.10;98.20;;;;;;5077546;28;20450;-87
2023/05/25 03:35:43;;;;;;;1.50;1.30;;;9.10;98.20;;;;;;5078726;28;20481;-89
2023/05/25 03:38:15;;;;;;;1.50;1.10;;;9.00;98.20;;;;;;5077861;28;20466;-89
2023/05/25 03:40:48;;;;;;;1.50;1.20;;;9.00;98.20;;;;;;5077662;28;20495;-89
2023/05/25 03:43:22;;;;;;;1.50;1.20;;;9.00;98.20;;;;;;5079296;28;20561;-89
2023/05/25 03:45:49;;;;;;;1.50;1.10;;;9.00;98.20;;;;;;5064913;28;20572;-88
2023/05/25 03:48:17;;;;;;;1.50;1.20;;;9.00;98.20;;;;;;5076195;28;20457;-88
2023/05/25 03:50:44;;;;;;;1.50;1.30;;;9.00;98.20;;;;;;5075217;28;21056;-91
2023/05/25 03:53:11;;;;;;;1.50;1.20;;;9.00;98.20;;;;;;5072912;28;20502;-89
2023/05/25 03:55:38;;;;;;;1.50;1.10;;;9.00;98.20;;;;;;5073963;28;20557;-87
2023/05/25 03:58:08;;;;;;;1.50;1.20;;;9.00;98.20;;;;;;5074400;28;20457;-87
2023/05/25 04:00:36;;;;;;;1.57;1.30;;;9.00;98.20;;;;;;5073237;28;20497;-88
2023/05/25 04:03:33;;;;;;;1.50;1.13;;;9.00;98.20;;;;;;5072523;28;20460;-89
2023/05/25 04:10:03;;;;;;;1.50;1.20;;;9.10;98.20;;;;;;4984104;28;20555;-89
2023/05/25 04:16:15;;;;;;;;;;;;;;;;;;;;;
2023/05/25 04:25:31;;;;;;;1.50;1.17;;;9.20;98.20;;;;;;4955792;28;20524;-89
2023/05/25 04:28:01;;;;;;;1.50;1.20;;;9.30;98.20;;;;;;5012585;28;20472;-89
2023/05/25 04:30:30;;;;;;;1.50;1.10;;;9.30;98.20;;;;;;5073210;28;20472;-90
2023/05/25 04:33:01;;;;;;;1.50;1.20;;;9.40;98.20;;;;;;5071203;28;20461;-87
2023/05/25 04:35:30;;;;;;;1.50;1.17;;;9.40;98.20;;;;;;5071201;28;21153;-91
2023/05/25 04:37:59;;;;;;;1.50;1.20;;;9.40;98.20;;;;;;5076250;28;20541;-87
2023/05/25 04:40:32;;;;;;;1.50;1.20;;;9.50;98.20;;;;;;5077308;28;20894;-88
2023/05/25 04:42:59;;;;;;;1.50;1.20;;;9.60;98.20;;;;;;5080509;28;20461;-89
2023/05/25 04:45:34;;;;;;;1.50;1.10;;;9.70;98.20;;;;;;5076950;28;21068;-88
2023/05/25 04:48:01;;;;;;;1.50;1.10;;;9.70;98.20;;;;;;5069648;28;20481;-86
2023/05/25 04:50:30;;;;;;;1.50;1.20;;;9.90;98.20;;;;;;5074342;28;20512;-88
2023/05/25 04:52:57;;;;;;;1.50;1.20;;;10.00;98.20;;;;;;5077469;28;20473;-87
2023/05/25 04:55:24;;;;;;;1.50;1.10;;;10.10;98.20;;;;;;5073645;28;20477;-85
2023/05/25 04:57:52;;;;;;;1.50;1.20;;;10.30;98.20;;;;;;5078229;28;20481;-89
2023/05/25 05:00:20;;;;;;;1.53;1.30;;;10.50;98.20;;;;;;5077445;28;20488;-88
2023/05/25 05:02:50;;;;;;;1.50;1.10;;;10.70;98.20;;;;;;5074958;28;20461;-87
2023/05/25 05:05:17;;;;;;;1.50;1.10;;;10.80;98.20;;;;;;5070398;28;20489;-87
2023/05/25 05:07:45;;;;;;;1.50;1.10;;;11.10;98.20;;;;;;5071743;28;20461;-86
2023/05/25 05:10:12;;;;;;;1.50;1.10;;;11.20;98.20;;;;;;5072407;28;20990;-86
2023/05/25 05:12:39;;;;;;;1.57;1.20;;;11.40;98.20;;;;;;5074029;28;20452;-86
2023/05/25 05:15:07;;;;;;;1.60;1.27;;;11.60;98.20;;;;;;5072047;28;21016;-86
2023/05/25 05:17:34;;;;;;;1.50;1.10;;;11.80;98.20;;;;;;5076838;28;20951;-88
2023/05/25 05:20:00;;;;;;;1.50;1.00;;;11.90;98.20;;;;;;5079174;28;20488;-91
2023/05/25 05:22:27;;;;;;;1.50;1.10;;;12.10;98.20;;;;;;5078725;28;20520;-87
2023/05/25 05:24:55;;;;;;;1.50;1.10;;;12.30;98.20;;;;;;5073093;28;21002;-89
2023/05/25 05:27:22;;;;;;;1.50;1.00;;;12.40;98.20;;;;;;5074575;28;21080;-89
2023/05/25 05:29:49;;;;;;;1.50;1.00;;;12.50;98.20;;;;;;5076992;28;20449;-87
2023/05/25 05:32:16;;;;;;;1.50;1.00;;;12.60;98.20;;;;;;5076333;28;20489;-89
2023/05/25 05:34:43;;;;;;;1.50;1.00;;;12.70;98.20;;;;;;5075100;28;20477;-91
2023/05/25 05:37:09;;;;;;;1.53;1.10;;;12.70;98.20;;;;;;5076856;28;20484;-88
2023/05/25 05:39:36;;;;;;;1.50;1.10;;;12.70;98.20;;;;;;5070232;28;20477;-87
2023/05/25 05:42:05;;;;;;;1.50;1.00;;;12.90;98.20;;;;;;5076930;28;20464;-90
2023/05/25 05:44:32;;;;;;;1.60;1.33;;;12.90;98.20;;;;;;5076978;28;20481;-90
2023/05/25 05:47:00;;;;;;;1.50;1.10;;;13.00;98.20;;;;;;5078669;28;20465;-88
2023/05/25 05:49:26;;;;;;;1.50;1.00;;;13.00;98.20;;;;;;5068702;28;20515;-89
2023/05/25 05:51:53;;;;;;;1.50;1.00;;;13.10;98.20;;;;;;5076863;28;20458;-89
2023/05/25 05:54:20;;;;;;;1.50;1.00;;;13.10;98.20;;;;;;5075078;28;20473;-87
2023/05/25 05:56:47;;;;;;;1.50;1.00;;;13.30;98.20;;;;;;5074926;28;20479;-89
2023/05/25 05:59:15;;;;;;;1.50;1.10;;;13.40;98.20;;;;;;5076445;28;20469;-90
2023/05/25 06:01:42;;;;;;;1.50;1.00;;;13.70;98.20;;;;;;5075853;28;20512;-88
2023/05/25 06:04:09;;;;;;;1.50;1.07;;;13.70;98.20;;;;;;5070919;28;20485;-90
2023/05/25 06:06:37;;;;;;;1.50;1.00;;;13.70;98.20;;;;;;5078983;28;20461;-90
2023/05/25 06:09:05;;;;;;;1.50;1.00;;;13.80;98.20;;;;;;5061292;28;20556;-88
2023/05/25 06:11:32;;;;;;;1.50;1.00;;;14.00;98.20;;;;;;5078106;28;20870;-89
2023/05/25 06:13:59;;;;;;;1.50;1.00;;;14.20;98.20;;;;;;5076763;28;20552;-88
2023/05/25 06:16:27;;;;;;;1.50;1.00;;;14.40;98.20;;;;;;5075578;28;20458;-91
2023/05/25 06:18:53;;;;;;;1.50;1.00;;;14.50;98.20;;;;;;5074709;28;20453;-90
2023/05/25 06:21:20;;;;;;;1.50;1.00;;;14.50;98.20;;;;;;5075896;28;20489;-91
2023/05/25 06:23:47;;;;;;;1.50;1.10;;;14.70;98.20;;;;;;5079638;28;20460;-89
2023/05/25 06:26:14;;;;;;;1.50;1.00;;;14.80;98.20;;;;;;5063722;28;20462;-88
2023/05/25 06:28:41;;;;;;;1.50;1.00;;;14.90;98.20;;;;;;5070545;28;20491;-90
2023/05/25 06:31:08;;;;;;;1.50;0.90;;;15.10;98.20;;;;;;5073514;28;20450;-89
2023/05/25 06:33:36;;;;;;;1.50;0.93;;;15.30;98.20;;;;;;5072714;28;20461;-89
2023/05/25 06:36:03;;;;;;;1.50;0.93;;;15.50;98.20;;;;;;5071968;28;20501;-89
2023/05/25 06:38:30;;;;;;;1.50;1.00;;;15.70;98.20;;;;;;5065186;28;20466;-87
2023/05/25 06:41:01;;;;;;;1.50;0.90;;;15.90;98.20;;;;;;5075768;28;20486;-90
2023/05/25 06:43:28;;;;;;;1.50;1.00;;;15.90;98.20;;;;;;5076401;28;20468;-89
2023/05/25 06:45:54;;;;;;;1.53;1.00;;;16.10;98.20;;;;;;5075273;28;20564;-88
2023/05/25 06:48:21;;;;;;;1.50;0.90;;;16.20;98.20;;;;;;5073760;28;20572;-90
2023/05/25 06:50:49;;;;;;;1.50;0.90;;;16.20;98.20;;;;;;5072173;28;21115;-88
2023/05/25 06:53:17;;;;;;;1.50;1.00;;;16.30;98.20;;;;;;5070446;28;20468;-88
2023/05/25 06:55:43;;;;;;;1.50;0.90;;;16.50;98.20;;;;;;5068375;28;20890;-88
2023/05/25 06:58:10;;;;;;;1.50;1.00;;;16.60;98.20;;;;;;5068606;28;20465;-90
2023/05/25 07:00:37;;;;;;;1.50;1.00;;;16.70;98.20;;;;;;5069278;28;20511;-89
2023/05/25 07:03:04;;;;;;;1.50;0.90;;;16.80;98.20;;;;;;5067056;28;20660;-90
2023/05/25 07:05:31;;;;;;;1.50;0.90;;;16.90;98.20;;;;;;5072653;28;20521;-89
2023/05/25 07:07:59;;;;;;;1.50;0.90;;;17.00;98.20;;;;;;5070745;28;20472;-89
2023/05/25 07:10:26;;;;;;;1.50;1.00;;;17.10;98.20;;;;;;5072472;28;20458;-88
2023/05/25 07:12:53;;;;;;;1.50;0.90;;;17.30;98.20;;;;;;5069791;28;20468;-87
2023/05/25 07:15:20;;;;;;;1.50;0.90;;;17.50;98.20;;;;;;5068610;28;20796;-88
2023/05/25 07:17:47;;;;;;;1.50;0.90;;;17.60;98.10;;;;;;5066447;28;20458;-88
2023/05/25 07:20:14;;;;;;;1.50;1.00;;;17.80;98.20;;;;;;5073642;28;20473;-89
2023/05/25 07:22:41;;;;;;;1.50;0.90;;;18.00;97.80;;;;;;5068192;28;20537;-87
2023/05/25 07:25:11;;;;;;;1.50;0.90;;;18.10;97.60;;;;;;5064377;28;20839;-90
2023/05/25 07:27:38;;;;;;;1.50;0.90;;;18.30;97.30;;;;;;5072970;28;20461;-90
2023/05/25 07:30:06;;;;;;;1.50;0.90;;;18.30;96.00;;;;;;5073566;28;20457;-91
2023/05/25 07:32:33;;;;;;;1.50;0.90;;;18.30;96.00;;;;;;5073568;28;20512;-89
2023/05/25 07:35:00;;;;;;;1.50;0.90;;;18.20;95.10;;;;;;5072245;28;20619;-88
2023/05/25 07:37:27;;;;;;;1.50;0.90;;;18.20;96.30;;;;;;5072352;28;20469;-87
2023/05/25 07:39:53;;;;;;;1.50;0.90;;;18.40;95.50;;;;;;5072054;28;20468;-89
2023/05/25 07:42:21;;;;;;;1.50;0.90;;;18.50;95.30;;;;;;5073645;28;20485;-91
2023/05/25 07:44:48;;;;;;;1.50;0.90;;;18.50;94.50;;;;;;5068098;28;20485;-90
2023/05/25 07:47:15;;;;;;;1.50;0.90;;;18.70;94.80;;;;;;5071041;28;20461;-88
2023/05/25 07:49:42;;;;;;;1.50;0.90;;;18.80;95.00;;;;;;5070549;28;20525;-88
2023/05/25 07:52:09;;;;;;;1.50;0.90;;;19.00;93.50;;;;;;5070539;28;20465;-90
2023/05/25 07:54:38;;;;;;;1.50;1.00;;;19.10;94.40;;;;;;5070061;28;20489;-88
2023/05/25 07:57:06;;;;;;;1.50;0.90;;;19.20;92.80;;;;;;5071053;28;20462;-88
2023/05/25 07:59:34;;;;;;;1.43;0.90;;;19.10;93.00;;;;;;5067307;28;20470;-88
2023/05/25 08:02:02;;;;;;;1.50;0.90;;;19.20;93.00;;;;;;5066873;28;20489;-88
2023/05/25 08:04:30;;;;;;;1.47;0.90;;;19.20;93.50;;;;;;5067042;28;20485;-89
2023/05/25 08:06:57;;;;;;;1.50;0.90;;;19.40;93.00;;;;;;5068291;28;20511;-90
2023/05/25 08:09:24;;;;;;;1.47;0.90;;;19.50;93.30;;;;;;5064259;28;20469;-88
2023/05/25 08:11:51;;;;;;;1.47;0.90;;;19.60;91.70;;;;;;5067066;28;20915;-87
2023/05/25 08:14:17;;;;;;;1.47;0.93;;;19.60;91.20;;;;;;5071614;28;20484;-89
2023/05/25 08:16:46;;;;;;;1.47;0.90;;;19.60;91.70;;;;;;5070361;28;20461;-90
2023/05/25 08:19:12;;;;;;;1.47;0.90;;;19.60;91.40;;;;;;5072418;28;20518;-88
2023/05/25 08:21:39;;;;;;;1.47;0.90;;;19.50;91.20;;;;;;5064108;28;20482;-91
2023/05/25 08:24:07;;;;;;;1.50;0.90;;;19.60;90.40;;;;;;5069577;28;20560;-88
2023/05/25 08:26:35;;;;;;;1.50;0.90;;;19.60;89.60;;;;;;5068237;28;20488;-90
2023/05/25 08:29:02;;;;;;;1.50;0.90;;;19.80;90.60;;;;;;5063935;28;20457;-91
2023/05/25 08:31:32;;;;;;;1.47;0.90;;;19.80;89.30;;;;;;5069698;28;20890;-87
2023/05/25 08:34:01;;;;;;;1.47;0.90;;;20.00;89.80;;;;;;5067675;28;20667;-86
2023/05/25 08:36:28;;;;;;;1.50;0.90;;;20.20;90.00;;;;;;5069255;28;20856;-88
2023/05/25 08:38:55;;;;;;;1.50;0.90;;;20.40;89.00;;;;;;5070720;28;20501;-88
2023/05/25 08:41:22;;;;;;;1.50;0.90;;;20.70;87.60;;;;;;5079199;28;20484;-89
2023/05/25 08:43:49;;;;;;;1.47;0.90;;;20.90;87.30;;;;;;5073781;28;20978;-90
2023/05/25 08:46:24;;;;;;;1.50;0.90;;;21.10;86.50;;;;;;5074421;28;20704;-86
2023/05/25 08:48:53;;;;;;;1.50;0.90;;;21.10;85.10;;;;;;5072938;28;20497;-87
2023/05/25 08:51:22;;;;;;;1.47;0.90;;;21.00;86.30;;;;;;5068451;28;20461;-90
2023/05/25 08:53:49;;;;;;;1.50;0.90;;;21.10;86.90;;;;;;5073584;28;20458;-87
2023/05/25 08:56:19;;;;;;;1.50;1.20;;;21.20;85.30;;;;;;5074661;28;20461;-88
2023/05/25 08:58:52;;;;;;;1.47;0.90;;;21.50;85.60;;;;;;5070479;28;20483;-90
2023/05/25 09:01:22;;;;;;;1.50;0.90;;;21.70;85.30;;;;;;5070806;28;20513;-88
2023/05/25 09:03:50;;;;;;;1.43;0.90;;;21.80;83.80;;;;;;5070804;28;20456;-89
2023/05/25 09:06:17;;;;;;;1.40;0.90;;;21.90;83.90;;;;;;5075173;28;20458;-89
2023/05/25 09:08:46;;;;;;;1.47;0.90;;;21.90;83.10;;;;;;5073583;28;20496;-89
2023/05/25 09:11:14;;;;;;;1.50;0.90;;;21.80;83.90;;;;;;5065584;28;21137;-89
2023/05/25 09:13:40;;;;;;;1.50;0.90;;;21.80;83.30;;;;;;5067792;28;20481;-88
2023/05/25 09:16:08;;;;;;;1.50;0.90;;;21.70;83.60;;;;;;5073429;28;20468;-93
2023/05/25 09:18:39;;;;;;;1.50;1.20;;;21.60;82.90;;;;;;5069331;28;20457;-89
2023/05/25 09:21:06;;;;;;;1.40;0.90;;;21.70;83.80;;;;;;5074263;28;20590;-90
2023/05/25 09:23:33;;;;;;;1.50;0.90;;;21.80;83.90;;;;;;5089223;28;20450;-88
2023/05/25 09:26:02;;;;;;;1.43;0.83;;;21.90;82.70;;;;;;5072816;28;20576;-88
2023/05/25 09:28:28;;;;;;;1.47;0.90;;;22.00;82.40;;;;;;5073749;28;20461;-89
2023/05/25 09:30:56;;;;;;;1.43;0.90;;;22.10;82.10;;;;;;5073340;28;20460;-89
2023/05/25 09:33:24;;;;;;;1.47;0.90;;;22.30;82.20;;;;;;5071911;28;20449;-89
2023/05/25 09:35:51;;;;;;;1.50;0.90;;;22.40;81.90;;;;;;5077705;28;21000;-90
2023/05/25 09:38:18;;;;;;;1.43;0.83;;;22.50;80.80;;;;;;5064712;28;20834;-89
2023/05/25 09:40:45;;;;;;;1.43;0.90;;;22.60;81.40;;;;;;5073220;28;20485;-88
2023/05/25 09:43:14;;;;;;;1.50;0.90;;;22.80;81.20;;;;;;5075279;28;20465;-89
2023/05/25 09:45:41;;;;;;;1.43;0.90;;;22.90;81.10;;;;;;5070966;28;20546;-88
2023/05/25 09:48:07;;;;;;;1.50;0.80;;;22.90;81.80;;;;;;5070936;28;20847;-89
2023/05/25 09:50:36;;;;;;;1.50;0.90;;;23.10;81.70;;;;;;5067003;28;20936;-90
2023/05/25 09:53:03;;;;;;;1.40;0.87;;;23.10;79.10;;;;;;5074932;28;20531;-90
2023/05/25 09:55:30;;;;;;;1.43;0.80;;;23.00;79.70;;;;;;5078488;28;20477;-89
2023/05/25 09:57:57;;;;;;;1.47;0.90;;;22.80;80.30;;;;;;5076508;28;20488;-91
2023/05/25 10:00:26;;;;;;;1.47;0.80;;;22.70;81.40;;;;;;5075971;28;20458;-88
2023/05/25 10:02:53;;;;;;;1.50;1.00;;;22.60;80.50;;;;;;5067432;28;20831;-90
2023/05/25 10:05:21;;;;;;;1.47;0.90;;;22.50;80.60;;;;;;5072197;28;20539;-90
2023/05/25 10:07:51;;;;;;;1.50;0.90;;;22.50;81.50;;;;;;5073487;28;20461;-89
2023/05/25 10:10:20;;;;;;;1.47;0.87;;;22.60;81.80;;;;;;5073177;28;20472;-90
2023/05/25 10:12:50;;;;;;;1.50;0.83;;;22.70;81.90;;;;;;5074189;28;20488;-89
2023/05/25 10:15:19;;;;;;;1.50;0.87;;;23.00;81.10;;;;;;5075190;28;20484;-90
2023/05/25 10:17:54;;;;;;;1.50;0.80;;;23.10;77.80;;;;;;5074913;28;20503;-89
2023/05/25 10:20:22;;;;;;;1.43;0.90;;;23.20;78.80;;;;;;5067691;28;20946;-90
2023/05/25 10:22:55;;;;;;;1.50;0.80;;;23.40;79.90;;;;;;5075457;28;20527;-88
2023/05/25 10:25:26;;;;;;;1.50;0.90;;;23.50;79.10;;;;;;5073845;28;20493;-90
2023/05/25 10:27:59;;;;;;;1.43;0.80;;;23.60;77.20;;;;;;5072478;28;20459;-89
2023/05/25 10:30:26;;;;;;;1.47;0.80;;;23.60;77.80;;;;;;5076952;28;20489;-90
2023/05/25 10:32:55;;;;;;;1.50;0.90;;;23.70;76.30;;;;;;5073122;28;20492;-88
2023/05/25 10:35:27;;;;;;;1.50;0.90;;;23.70;77.50;;;;;;5071041;28;20538;-92
2023/05/25 10:37:54;;;;;;;2.00;1.80;;;23.70;76.80;;;;;;5076099;28;20834;-90
2023/05/25 10:40:21;;;;;;;1.47;0.80;;;23.70;77.00;;;;;;5084942;28;20838;-89
2023/05/25 10:42:49;;;;;;;1.43;0.80;;;23.70;76.50;;;;;;5078255;28;20556;-88
2023/05/25 10:45:17;;;;;;;1.50;1.00;;;23.80;76.90;;;;;;5074663;28;20897;-89
2023/05/25 10:47:45;;;;;;;1.43;0.90;;;23.80;76.10;;;;;;5073668;28;20968;-89
2023/05/25 10:50:25;;;;;;;1.40;0.80;;;23.70;75.90;;;;;;5071224;28;20461;-89
2023/05/25 10:53:00;;;;;;;1.47;0.80;;;23.80;77.20;;;;;;5070955;28;20485;-90
2023/05/25 10:55:30;;;;;;;1.50;0.90;;;24.00;76.20;;;;;;5068152;28;20567;-88
2023/05/25 10:58:11;;;;;;;1.47;0.90;;;24.00;75.50;;;;;;5073189;28;20468;-89
2023/05/25 11:00:38;;;;;;;1.47;0.80;;;24.00;75.50;;;;;;5070151;28;20456;-89
2023/05/25 11:03:05;;;;;;;1.47;0.80;;;24.10;76.70;;;;;;5069682;28;20483;-90
2023/05/25 11:05:39;;;;;;;1.47;0.90;;;24.10;74.90;;;;;;5065756;28;20520;-88
2023/05/25 11:08:08;;;;;;;1.60;1.27;;;24.20;75.40;;;;;;5072781;28;20508;-88
2023/05/25 11:10:51;;;;;;;1.43;0.80;;;24.30;75.40;;;;;;5072857;28;20501;-90
2023/05/25 11:13:37;;;;;;;1.50;0.83;;;24.20;74.60;;;;;;5064798;28;20462;-87
2023/05/25 11:16:18;;;;;;;1.47;0.80;;;24.20;75.00;;;;;;5072725;28;20481;-92
2023/05/25 11:18:49;;;;;;;1.47;0.80;;;24.30;74.30;;;;;;5070893;28;20457;-89
2023/05/25 11:21:22;;;;;;;1.47;0.90;;;24.20;74.70;;;;;;5069871;28;20481;-88
2023/05/25 11:23:57;;;;;;;1.43;0.80;;;24.20;74.50;;;;;;5070546;28;20449;-88
2023/05/25 11:26:25;;;;;;;4.30;3.90;;;24.10;73.00;;;;;;5070794;28;21006;-89
2023/05/25 11:28:52;;;;;;;1.47;0.80;;;24.00;73.90;;;;;;5068680;28;20613;-90
2023/05/25 11:31:22;;;;;;;1.50;0.80;;;23.90;74.60;;;;;;5069441;28;20672;-88
2023/05/25 11:33:56;;;;;;;1.43;0.80;;;23.70;75.10;;;;;;5076212;28;20453;-89
2023/05/25 11:36:25;;;;;;;1.47;0.80;;;23.50;75.60;;;;;;5075570;28;20466;-90
2023/05/25 11:38:53;;;;;;;1.60;1.00;;;23.40;75.30;;;;;;5070228;28;20469;-88
2023/05/25 11:41:20;;;;;;;1.47;0.90;;;23.30;74.80;;;;;;5067243;28;20491;-89
2023/05/25 11:43:49;;;;;;;1.50;1.10;;;23.20;76.10;;;;;;5067599;28;20621;-90
2023/05/25 11:46:18;;;;;;;1.50;0.90;;;23.10;76.40;;;;;;5071091;28;20500;-88
2023/05/25 11:48:46;;;;;;;1.50;1.07;;;22.90;77.40;;;;;;5067720;28;20870;-89
2023/05/25 11:51:13;;;;;;;1.43;0.80;;;22.90;76.60;;;;;;5061520;28;20461;-87
2023/05/25 11:53:45;;;;;;;1.47;0.80;;;23.10;76.90;;;;;;5072577;28;20469;-89
2023/05/25 11:56:13;;;;;;;1.50;0.87;;;23.20;77.10;;;;;;5069560;28;20883;-90
2023/05/25 11:58:43;;;;;;;1.50;1.00;;;22.90;76.80;;;;;;5070816;28;20481;-91
2023/05/25 12:01:14;;;;;;;1.50;0.90;;;22.80;76.00;;;;;;5072538;28;20462;-88
2023/05/25 12:03:43;;;;;;;1.47;0.80;;;22.90;77.40;;;;;;5067949;28;20462;-90
2023/05/25 12:06:24;;;;;;;1.47;0.90;;;23.00;77.00;;;;;;5070516;28;21005;-88
2023/05/25 12:08:52;;;;;;;1.50;0.90;;;22.80;77.20;;;;;;5069482;28;20959;-90
2023/05/25 12:11:26;;;;;;;1.43;0.90;;;22.90;77.40;;;;;;5069270;28;20509;-88
2023/05/25 12:13:53;;;;;;;1.47;0.90;;;22.90;77.90;;;;;;5069426;28;21132;-90
2023/05/25 12:16:21;;;;;;;1.47;0.80;;;22.80;78.20;;;;;;5068165;28;20466;-90
2023/05/25 12:18:47;;;;;;;1.43;0.90;;;22.80;76.30;;;;;;5068846;28;20457;-90
2023/05/25 12:21:15;;;;;;;1.50;0.80;;;22.50;76.60;;;;;;5070516;28;20473;-89
2023/05/25 12:23:41;;;;;;;1.50;1.00;;;22.50;79.20;;;;;;5067853;28;20465;-89
2023/05/25 12:26:15;;;;;;;1.40;0.80;;;22.50;77.00;;;;;;5068470;28;20465;-90
2023/05/25 12:28:58;;;;;;;1.40;0.80;;;22.50;77.00;;;;;;5063566;28;20508;-90
2023/05/25 12:31:26;;;;;;;1.60;1.37;;;22.40;77.50;;;;;;5066937;28;20462;-90
2023/05/25 12:34:06;;;;;;;1.60;1.10;;;22.40;76.90;;;;;;5066724;28;20467;-89
2023/05/25 12:36:41;;;;;;;1.50;0.90;;;22.40;78.20;;;;;;5068349;28;20457;-90
2023/05/25 12:39:08;;;;;;;1.43;0.87;;;22.40;77.60;;;;;;5071923;28;20521;-90
2023/05/25 12:41:50;;;;;;;1.43;0.90;;;22.50;77.20;;;;;;5070740;28;20489;-90
2023/05/25 12:44:30;;;;;;;1.50;1.10;;;22.50;76.50;;;;;;5067566;28;20476;-88
2023/05/25 12:47:09;;;;;;;1.47;0.80;;;22.60;76.80;;;;;;5070437;28;20510;-87
2023/05/25 12:49:36;;;;;;;1.43;0.90;;;22.60;76.50;;;;;;5070057;28;20465;-90
2023/05/25 12:52:04;;;;;;;1.47;0.90;;;22.50;76.00;;;;;;5067827;28;20480;-88
2023/05/25 12:54:50;;;;;;;1.50;1.00;;;22.50;76.40;;;;;;5069022;28;20482;-90
2023/05/25 12:57:18;;;;;;;1.43;0.87;;;22.40;76.70;;;;;;5065381;28;20751;-89
2023/05/25 12:59:46;;;;;;;1.43;0.80;;;22.50;77.00;;;;;;5067419;28;20462;-88
2023/05/25 13:02:14;;;;;;;1.43;0.90;;;22.40;77.20;;;;;;5068017;28;20479;-89
2023/05/25 13:04:43;;;;;;;1.47;0.90;;;22.20;77.20;;;;;;5069579;28;20480;-89
2023/05/25 13:07:10;;;;;;;1.43;0.90;;;21.90;78.40;;;;;;5070950;28;20458;-90
2023/05/25 13:09:37;;;;;;;1.50;1.07;;;21.90;79.70;;;;;;5068630;28;20477;-90
2023/05/25 13:12:05;;;;;;;1.40;0.80;;;22.10;78.90;;;;;;5067271;28;20837;-91